Time;durP1;ratioP1;P1;durP2;ratioP2;P2;SDS_P1;SDS_P2;PMS_P1;PMS_P2;Temp;Humidity;BMP_temperature;BMP_pressure;BME280_temperature;BME280_humidity;BME280_pressure;Samples;Min_cycle;Max_cycle;Signal;HPM_P1;HPM_P2
2021/11/05 00:01:51;;;;;;;28.55;16.67;;;;;;;;;;5069999;28;20028;-75
2021/11/05 00:04:17;;;;;;;21.25;15.70;;;;;;;;;;5076011;28;20058;-75
2021/11/05 00:06:43;;;;;;;25.90;17.98;;;;;;;;;;5067157;28;20414;-75
2021/11/05 00:09:09;;;;;;;23.88;16.92;;;;;;;;;;5075675;28;20096;-75
2021/11/05 00:11:35;;;;;;;26.50;16.15;;;;;;;;;;5077409;28;20017;-76
2021/11/05 00:14:02;;;;;;;26.42;16.17;;;;;;;;;;5079439;28;20028;-76
2021/11/05 00:16:28;;;;;;;26.58;17.58;;;;;;;;;;5074197;28;20024;-76
2021/11/05 00:18:54;;;;;;;31.65;17.17;;;;;;;;;;5074992;28;20032;-75
2021/11/05 00:21:20;;;;;;;112.38;15.38;;;;;;;;;;5077542;28;20020;-75
2021/11/05 00:23:46;;;;;;;42.65;14.90;;;;;;;;;;5075534;28;20025;-75
2021/11/05 00:26:24;;;;;;;158.80;20.27;;;;;;;;;;5078801;28;20017;-76
2021/11/05 00:28:50;;;;;;;22.02;14.13;;;;;;;;;;5076880;28;20036;-75
2021/11/05 00:31:16;;;;;;;30.73;15.70;;;;;;;;;;5075149;28;20028;-75
2021/11/05 00:33:45;;;;;;;40.78;17.48;;;;;;;;;;5075770;28;20047;-75
2021/11/05 00:36:14;;;;;;;22.13;14.10;;;;;;;;;;5075585;28;20047;-75
2021/11/05 00:38:43;;;;;;;19.00;12.88;;;;;;;;;;5075925;28;20054;-75
2021/11/05 00:41:10;;;;;;;20.23;12.85;;;;;;;;;;5076199;28;20025;-75
2021/11/05 00:43:36;;;;;;;15.68;9.70;;;;;;;;;;5072135;28;20029;-73
2021/11/05 00:46:02;;;;;;;13.52;8.10;;;;;;;;;;5075589;28;20104;-75
2021/11/05 00:48:28;;;;;;;7.47;6.30;;;;;;;;;;5075305;28;20036;-75
2021/11/05 00:50:54;;;;;;;12.93;8.38;;;;;;;;;;5075841;28;20086;-75
2021/11/05 00:53:21;;;;;;;13.25;8.90;;;;;;;;;;5075321;28;20565;-75
2021/11/05 00:55:47;;;;;;;10.63;7.68;;;;;;;;;;5076651;28;20028;-75
2021/11/05 00:58:18;;;;;;;11.82;7.80;;;;;;;;;;5085541;28;20525;-76
2021/11/05 01:00:46;;;;;;;12.63;7.60;;;;;;;;;;5079135;28;20028;-76
2021/11/05 01:03:14;;;;;;;13.50;8.52;;;;;;;;;;5069832;28;20131;-75
2021/11/05 01:05:40;;;;;;;10.73;6.43;;;;;;;;;;5075974;28;20035;-75
2021/11/05 01:08:07;;;;;;;13.80;7.38;;;;;;;;;;5076583;28;20040;-75
2021/11/05 01:10:35;;;;;;;10.95;7.30;;;;;;;;;;5076049;28;20052;-75
2021/11/05 01:13:02;;;;;;;15.07;8.45;;;;;;;;;;5075149;28;20505;-75
2021/11/05 01:15:28;;;;;;;107.20;71.85;;;;;;;;;;5069120;28;20029;-75
2021/11/05 01:17:54;;;;;;;30.33;22.63;;;;;;;;;;5081305;28;20035;-75
2021/11/05 01:20:20;;;;;;;18.63;13.07;;;;;;;;;;5078646;28;20027;-75
2021/11/05 01:22:46;;;;;;;15.02;10.35;;;;;;;;;;5078529;28;20039;-75
2021/11/05 01:25:14;;;;;;;26.15;11.13;;;;;;;;;;5078512;28;20042;-75
2021/11/05 01:27:44;;;;;;;15.98;9.48;;;;;;;;;;5075211;28;20097;-74
2021/11/05 01:30:11;;;;;;;19.58;10.57;;;;;;;;;;5083986;28;20043;-75
2021/11/05 01:32:38;;;;;;;90.28;12.40;;;;;;;;;;5076923;28;20028;-75
2021/11/05 01:35:05;;;;;;;12.10;8.55;;;;;;;;;;5073088;28;20025;-74
2021/11/05 01:37:31;;;;;;;18.73;10.38;;;;;;;;;;5074075;28;20044;-75
2021/11/05 01:39:58;;;;;;;17.48;10.60;;;;;;;;;;5072893;28;20086;-76
2021/11/05 01:42:25;;;;;;;23.13;11.20;;;;;;;;;;5079851;28;20669;-75
2021/11/05 01:44:51;;;;;;;17.95;10.38;;;;;;;;;;5077769;28;20074;-75
2021/11/05 01:47:18;;;;;;;18.17;10.25;;;;;;;;;;5079642;28;20112;-75
2021/11/05 01:49:44;;;;;;;18.23;10.95;;;;;;;;;;5079137;28;20013;-74
2021/11/05 01:52:11;;;;;;;16.38;10.27;;;;;;;;;;5078978;28;20044;-75
2021/11/05 01:54:37;;;;;;;18.80;10.68;;;;;;;;;;5078771;28;20032;-75
2021/11/05 01:57:03;;;;;;;15.55;10.00;;;;;;;;;;5079640;28;20040;-75
2021/11/05 01:59:34;;;;;;;13.20;9.73;;;;;;;;;;5078726;28;20028;-75
2021/11/05 02:02:01;;;;;;;17.58;9.82;;;;;;;;;;5078862;28;20032;-76
2021/11/05 02:04:27;;;;;;;14.43;9.05;;;;;;;;;;5078273;28;20633;-75
2021/11/05 02:06:54;;;;;;;15.57;9.63;;;;;;;;;;5075531;28;20048;-75
2021/11/05 02:09:21;;;;;;;14.48;8.88;;;;;;;;;;5076499;28;20031;-74
2021/11/05 02:11:49;;;;;;;16.80;9.35;;;;;;;;;;5077545;28;20078;-74
2021/11/05 02:14:17;;;;;;;21.75;9.73;;;;;;;;;;5075166;28;20027;-75
2021/11/05 02:16:44;;;;;;;12.23;8.40;;;;;;;;;;5079454;28;20027;-74
2021/11/05 02:19:12;;;;;;;15.55;8.38;;;;;;;;;;5078312;28;20021;-75
2021/11/05 02:21:40;;;;;;;10.73;8.10;;;;;;;;;;5075677;28;20012;-75
2021/11/05 02:24:06;;;;;;;11.93;7.32;;;;;;;;;;5068189;28;20032;-75
2021/11/05 02:26:35;;;;;;;11.90;7.10;;;;;;;;;;5071542;28;20024;-75
2021/11/05 02:29:01;;;;;;;13.55;6.97;;;;;;;;;;5078028;28;20477;-75
2021/11/05 02:31:27;;;;;;;14.38;7.32;;;;;;;;;;5076971;28;20028;-74
2021/11/05 02:33:53;;;;;;;12.95;8.02;;;;;;;;;;5077048;28;20028;-75
2021/11/05 02:36:19;;;;;;;12.30;8.27;;;;;;;;;;5074942;28;20553;-74
2021/11/05 02:38:45;;;;;;;12.32;8.52;;;;;;;;;;5074924;28;20029;-74
2021/11/05 02:41:11;;;;;;;13.00;7.72;;;;;;;;;;5075844;28;20029;-75
2021/11/05 02:43:37;;;;;;;13.65;8.50;;;;;;;;;;5076188;28;20111;-74
2021/11/05 02:46:03;;;;;;;10.32;6.95;;;;;;;;;;5075644;28;20036;-75
2021/11/05 02:48:31;;;;;;;7.60;6.53;;;;;;;;;;5076447;28;20028;-74
2021/11/05 02:50:58;;;;;;;7.20;6.35;;;;;;;;;;5077284;28;20162;-75
2021/11/05 02:53:25;;;;;;;8.38;6.32;;;;;;;;;;5077377;28;20052;-75
2021/11/05 02:55:51;;;;;;;8.10;5.85;;;;;;;;;;5075671;28;20036;-75
2021/11/05 02:58:17;;;;;;;6.60;5.13;;;;;;;;;;5077136;28;20024;-75
2021/11/05 03:00:45;;;;;;;8.45;5.30;;;;;;;;;;5077324;28;20030;-75
2021/11/05 03:03:15;;;;;;;6.43;4.45;;;;;;;;;;5070815;28;20036;-75
2021/11/05 03:05:41;;;;;;;8.82;6.70;;;;;;;;;;5075468;28;20017;-75
2021/11/05 03:08:07;;;;;;;10.43;6.78;;;;;;;;;;5077554;28;20213;-75
2021/11/05 03:10:36;;;;;;;12.77;8.27;;;;;;;;;;5077301;28;20028;-76
2021/11/05 03:13:03;;;;;;;13.57;8.07;;;;;;;;;;5066338;28;20506;-76
2021/11/05 03:15:30;;;;;;;17.15;9.95;;;;;;;;;;5080915;28;20045;-76
2021/11/05 03:17:59;;;;;;;13.48;8.90;;;;;;;;;;5078359;28;20551;-75
2021/11/05 03:20:25;;;;;;;16.88;10.48;;;;;;;;;;5077981;28;20044;-74
2021/11/05 03:22:52;;;;;;;17.50;10.82;;;;;;;;;;5074803;28;20025;-75
2021/11/05 03:25:18;;;;;;;18.58;10.55;;;;;;;;;;5062442;28;20016;-75
2021/11/05 03:27:45;;;;;;;11.55;8.38;;;;;;;;;;5080253;28;20032;-74
2021/11/05 03:30:12;;;;;;;9.10;6.90;;;;;;;;;;5072348;28;20036;-76
2021/11/05 03:32:41;;;;;;;9.90;7.20;;;;;;;;;;5077330;28;20021;-74
2021/11/05 03:35:09;;;;;;;8.13;5.22;;;;;;;;;;5073550;28;20082;-75
2021/11/05 03:37:35;;;;;;;8.32;5.30;;;;;;;;;;5072173;28;20057;-75
2021/11/05 03:40:02;;;;;;;8.40;5.70;;;;;;;;;;5076668;28;20013;-75
2021/11/05 03:42:28;;;;;;;8.15;4.45;;;;;;;;;;5074881;28;20024;-74
2021/11/05 03:44:54;;;;;;;10.07;4.80;;;;;;;;;;5074179;28;20099;-74
2021/11/05 03:47:22;;;;;;;7.55;4.47;;;;;;;;;;5074973;28;20044;-74
2021/11/05 03:49:48;;;;;;;6.63;3.70;;;;;;;;;;5073966;28;20044;-75
2021/11/05 03:52:14;;;;;;;6.93;3.60;;;;;;;;;;5074193;28;20032;-74
2021/11/05 03:54:40;;;;;;;7.30;3.28;;;;;;;;;;5074021;28;20020;-75
2021/11/05 03:57:07;;;;;;;5.00;3.30;;;;;;;;;;5074676;28;20059;-74
2021/11/05 03:59:34;;;;;;;6.80;4.10;;;;;;;;;;5073396;28;20040;-75
2021/11/05 04:02:00;;;;;;;8.25;4.25;;;;;;;;;;5072166;28;20020;-74
2021/11/05 04:04:26;;;;;;;7.68;4.70;;;;;;;;;;5075723;28;20466;-72
2021/11/05 04:06:52;;;;;;;8.07;4.90;;;;;;;;;;5072224;28;20037;-74
2021/11/05 04:09:19;;;;;;;6.78;4.53;;;;;;;;;;5074742;28;20477;-75
2021/11/05 04:11:46;;;;;;;8.35;4.50;;;;;;;;;;5074814;28;20074;-75
2021/11/05 04:14:12;;;;;;;10.07;3.83;;;;;;;;;;5071684;28;20037;-74
2021/11/05 04:16:38;;;;;;;7.72;4.38;;;;;;;;;;5071963;28;20056;-75
2021/11/05 04:19:05;;;;;;;7.25;4.63;;;;;;;;;;5078250;28;20347;-75
2021/11/05 04:21:34;;;;;;;7.20;4.28;;;;;;;;;;5073659;28;20024;-75
2021/11/05 04:24:01;;;;;;;6.95;4.05;;;;;;;;;;5074672;28;20594;-74
2021/11/05 04:26:28;;;;;;;8.05;4.28;;;;;;;;;;5068464;28;20029;-75
2021/11/05 04:28:54;;;;;;;6.68;4.00;;;;;;;;;;5072606;28;20448;-75
2021/11/05 04:31:20;;;;;;;5.00;2.53;;;;;;;;;;5072394;28;20031;-74
2021/11/05 04:33:47;;;;;;;7.05;2.92;;;;;;;;;;5073011;28;20031;-74
2021/11/05 04:36:13;;;;;;;4.63;3.00;;;;;;;;;;5073332;28;20045;-74
2021/11/05 04:38:39;;;;;;;6.65;3.67;;;;;;;;;;5068938;28;20029;-74
2021/11/05 04:41:05;;;;;;;7.28;4.18;;;;;;;;;;5073436;28;20032;-74
2021/11/05 04:43:31;;;;;;;4.47;3.03;;;;;;;;;;5072842;28;20028;-74
2021/11/05 04:45:57;;;;;;;6.28;3.10;;;;;;;;;;5073175;28;20032;-74
2021/11/05 04:48:24;;;;;;;5.15;3.10;;;;;;;;;;5074440;28;20040;-73
2021/11/05 04:50:50;;;;;;;7.30;3.65;;;;;;;;;;5075215;28;20036;-74
2021/11/05 04:53:16;;;;;;;8.90;3.90;;;;;;;;;;5076912;28;20033;-74
2021/11/05 04:55:42;;;;;;;9.02;4.30;;;;;;;;;;5078050;28;20544;-74
2021/11/05 04:58:08;;;;;;;7.13;3.90;;;;;;;;;;5071493;28;20033;-75
2021/11/05 05:00:35;;;;;;;8.90;3.90;;;;;;;;;;5073821;28;20021;-74
2021/11/05 05:03:01;;;;;;;7.65;3.15;;;;;;;;;;5076584;28;20115;-75
2021/11/05 05:05:27;;;;;;;8.10;2.90;;;;;;;;;;5077361;28;20023;-75
2021/11/05 05:07:56;;;;;;;6.32;2.67;;;;;;;;;;5083410;28;20051;-74
2021/11/05 05:10:23;;;;;;;5.93;2.55;;;;;;;;;;5078413;28;20108;-75
2021/11/05 05:12:49;;;;;;;4.70;2.30;;;;;;;;;;5068426;28;20024;-75
2021/11/05 05:15:16;;;;;;;3.78;2.30;;;;;;;;;;5069534;28;20019;-73
2021/11/05 05:17:42;;;;;;;4.95;2.55;;;;;;;;;;5075274;28;20104;-74
2021/11/05 05:20:10;;;;;;;8.32;3.70;;;;;;;;;;5077345;28;20082;-74
2021/11/05 05:22:36;;;;;;;5.88;3.00;;;;;;;;;;5076195;28;20051;-74
2021/11/05 05:25:04;;;;;;;7.05;3.08;;;;;;;;;;5076752;28;20029;-75
2021/11/05 05:27:32;;;;;;;7.97;3.05;;;;;;;;;;5081640;28;20040;-75
2021/11/05 05:29:58;;;;;;;9.60;3.83;;;;;;;;;;5074672;28;20032;-74
2021/11/05 05:32:24;;;;;;;6.38;3.60;;;;;;;;;;5075305;28;20020;-73
2021/11/05 05:34:50;;;;;;;6.47;3.20;;;;;;;;;;5076281;28;20020;-75
2021/11/05 05:37:17;;;;;;;5.80;3.53;;;;;;;;;;5076444;28;20055;-74
2021/11/05 05:39:44;;;;;;;10.52;3.80;;;;;;;;;;5069934;28;20138;-75
2021/11/05 05:42:11;;;;;;;7.05;2.72;;;;;;;;;;5076225;28;20020;-75
2021/11/05 05:44:39;;;;;;;7.70;3.40;;;;;;;;;;5071814;28;20032;-75
2021/11/05 05:47:06;;;;;;;7.43;3.03;;;;;;;;;;5063351;28;20040;-75
2021/11/05 05:49:32;;;;;;;10.65;4.68;;;;;;;;;;5061039;28;20079;-75
2021/11/05 05:51:58;;;;;;;18.75;5.88;;;;;;;;;;5061387;28;20116;-74
2021/11/05 05:54:24;;;;;;;9.80;4.95;;;;;;;;;;5058720;28;20025;-75
2021/11/05 05:56:51;;;;;;;13.43;6.07;;;;;;;;;;5066590;28;20036;-74
2021/11/05 05:59:19;;;;;;;15.50;6.00;;;;;;;;;;5058295;28;20100;-74
2021/11/05 06:01:45;;;;;;;8.73;4.65;;;;;;;;;;5067095;28;20025;-76
2021/11/05 06:04:11;;;;;;;187.70;11.73;;;;;;;;;;5081659;28;20389;-75
2021/11/05 06:06:38;;;;;;;18.98;8.85;;;;;;;;;;5073109;28;20088;-74
2021/11/05 06:09:05;;;;;;;28.25;18.98;;;;;;;;;;5075535;28;20123;-76
2021/11/05 06:11:31;;;;;;;16.48;10.63;;;;;;;;;;5075366;28;20100;-75
2021/11/05 06:13:58;;;;;;;9.80;6.57;;;;;;;;;;5071526;28;20687;-77
2021/11/05 06:16:24;;;;;;;12.15;8.05;;;;;;;;;;5075803;28;20028;-75
2021/11/05 06:18:50;;;;;;;14.25;7.15;;;;;;;;;;5075105;28;20028;-74
2021/11/05 06:21:23;;;;;;;10.07;6.32;;;;;;;;;;5072960;28;20035;-74
2021/11/05 06:23:53;;;;;;;15.10;7.07;;;;;;;;;;5078659;28;20017;-77
2021/11/05 06:26:20;;;;;;;13.20;6.50;;;;;;;;;;5086548;28;20095;-80
2021/11/05 06:28:51;;;;;;;13.98;6.97;;;;;;;;;;5084978;28;20036;-74
2021/11/05 06:31:18;;;;;;;12.05;6.78;;;;;;;;;;5078830;28;20029;-76
2021/11/05 06:33:44;;;;;;;9.35;6.63;;;;;;;;;;5076438;28;20571;-74
2021/11/05 06:36:11;;;;;;;15.52;7.90;;;;;;;;;;5071924;28;20049;-76
2021/11/05 06:38:43;;;;;;;13.73;8.20;;;;;;;;;;5077619;28;20028;-77
2021/11/05 06:41:33;;;;;;;12.77;7.93;;;;;;;;;;5102155;28;20418;-75
2021/11/05 06:44:20;;;;;;;14.40;10.38;;;;;;;;;;5090556;28;20040;-75
2021/11/05 06:46:47;;;;;;;17.15;11.70;;;;;;;;;;5095491;28;20017;-76
2021/11/05 06:49:13;;;;;;;18.80;13.07;;;;;;;;;;5095955;28;20083;-75
2021/11/05 06:51:39;;;;;;;19.17;13.02;;;;;;;;;;5095344;28;20040;-76
2021/11/05 06:54:05;;;;;;;16.35;11.48;;;;;;;;;;5096163;28;20036;-78
2021/11/05 06:56:31;;;;;;;17.90;12.05;;;;;;;;;;5086628;28;20032;-77
2021/11/05 06:59:00;;;;;;;17.30;12.55;;;;;;;;;;5080133;28;20040;-75
2021/11/05 07:01:28;;;;;;;21.08;14.88;;;;;;;;;;5095911;28;20069;-76
2021/11/05 07:03:54;;;;;;;20.48;13.65;;;;;;;;;;5095636;28;20024;-77
2021/11/05 07:06:22;;;;;;;16.65;12.13;;;;;;;;;;5096572;28;20032;-78
2021/11/05 07:08:48;;;;;;;16.83;10.63;;;;;;;;;;5096916;28;20036;-76
2021/11/05 07:11:15;;;;;;;18.35;13.23;;;;;;;;;;5095472;28;20021;-78
2021/11/05 07:13:41;;;;;;;15.18;11.95;;;;;;;;;;5096513;28;20028;-75
2021/11/05 07:16:08;;;;;;;14.55;11.00;;;;;;;;;;5094947;28;20028;-76
2021/11/05 07:18:36;;;;;;;18.45;11.80;;;;;;;;;;5095242;28;20075;-75
2021/11/05 07:21:04;;;;;;;14.38;10.40;;;;;;;;;;5077534;28;20028;-76
2021/11/05 07:23:32;;;;;;;17.50;11.13;;;;;;;;;;5078117;28;20123;-75
2021/11/05 07:26:00;;;;;;;23.08;14.18;;;;;;;;;;5073541;28;20032;-73
2021/11/05 07:28:26;;;;;;;35.70;19.90;;;;;;;;;;5073246;28;20044;-75
2021/11/05 07:30:52;;;;;;;30.70;18.67;;;;;;;;;;5077086;28;20078;-76
2021/11/05 07:33:18;;;;;;;27.05;18.25;;;;;;;;;;5073859;28;20102;-74
2021/11/05 07:35:46;;;;;;;28.40;17.35;;;;;;;;;;5075436;28;20498;-75
2021/11/05 07:38:12;;;;;;;18.92;13.82;;;;;;;;;;5076511;28;20036;-74
2021/11/05 07:40:40;;;;;;;16.20;10.00;;;;;;;;;;5089403;28;20035;-75
2021/11/05 07:43:21;;;;;;;14.35;10.68;;;;;;;;;;5105982;28;20047;-76
2021/11/05 07:46:16;;;;;;;19.67;12.95;;;;;;;;;;5094203;28;20088;-77
2021/11/05 07:49:07;;;;;;;12.63;9.85;;;;;;;;;;5091764;28;20044;-75
2021/11/05 07:51:55;;;;;;;17.38;11.27;;;;;;;;;;5088661;28;20024;-77
2021/11/05 07:54:41;;;;;;;16.65;12.02;;;;;;;;;;5093571;28;20096;-75
2021/11/05 07:57:31;;;;;;;23.05;14.93;;;;;;;;;;5075580;28;20005;-74
2021/11/05 07:59:58;;;;;;;22.80;15.43;;;;;;;;;;5058215;28;20075;-74
2021/11/05 08:02:43;;;;;;;22.88;17.48;;;;;;;;;;5073544;28;20041;-74
2021/11/05 08:05:10;;;;;;;21.92;17.58;;;;;;;;;;5020505;28;20137;-74
2021/11/05 08:07:41;;;;;;;23.27;18.83;;;;;;;;;;5065489;28;20045;-74
2021/11/05 08:10:08;;;;;;;21.35;18.45;;;;;;;;;;5073948;28;20059;-74
2021/11/05 08:12:34;;;;;;;25.85;20.85;;;;;;;;;;5075098;28;20020;-74
2021/11/05 08:15:22;;;;;;;25.30;20.42;;;;;;;;;;5076924;28;20056;-75
2021/11/05 08:18:41;;;;;;;25.38;20.15;;;;;;;;;;5051167;28;20017;-77
2021/11/05 08:21:09;;;;;;;22.83;19.15;;;;;;;;;;4979583;28;20034;-76
2021/11/05 08:23:48;;;;;;;27.70;19.92;;;;;;;;;;4990613;28;20039;-78
2021/11/05 08:26:20;;;;;;;30.58;21.00;;;;;;;;;;4971204;28;20015;-74
2021/11/05 08:28:52;;;;;;;25.10;20.05;;;;;;;;;;4973632;28;20039;-74
2021/11/05 08:31:19;;;;;;;22.63;18.45;;;;;;;;;;4960341;29;20490;-74
2021/11/05 08:36:24;;;;;;;30.20;19.98;;;;;;;;;;5392019;22;20045;-76
2021/11/05 08:38:51;;;;;;;26.02;18.98;;;;;;;;;;5071655;28;20017;-75
2021/11/05 08:41:17;;;;;;;25.60;17.15;;;;;;;;;;5059406;28;20010;-75
2021/11/05 08:43:51;;;;;;;20.20;16.90;;;;;;;;;;5075381;28;20104;-76
2021/11/05 08:46:22;;;;;;;17.60;15.70;;;;;;;;;;5059378;28;20104;-78
2021/11/05 08:49:01;;;;;;;20.63;16.08;;;;;;;;;;5036990;28;20037;-75
2021/11/05 08:51:29;;;;;;;22.42;17.38;;;;;;;;;;5052668;28;20029;-75
2021/11/05 08:53:55;;;;;;;23.88;19.27;;;;;;;;;;5054836;28;20032;-75
2021/11/05 08:56:21;;;;;;;23.85;19.65;;;;;;;;;;5060109;28;20028;-80
2021/11/05 08:58:48;;;;;;;29.35;21.13;;;;;;;;;;5063603;28;20037;-76
2021/11/05 09:01:16;;;;;;;26.42;22.33;;;;;;;;;;5073956;28;20029;-77
2021/11/05 09:04:05;;;;;;;26.40;22.50;;;;;;;;;;5064577;28;20028;-77
2021/11/05 09:06:34;;;;;;;30.85;24.27;;;;;;;;;;5058173;28;20068;-77
2021/11/05 09:09:00;;;;;;;27.75;23.65;;;;;;;;;;5036664;28;20045;-77
2021/11/05 09:11:29;;;;;;;24.88;19.73;;;;;;;;;;5054808;28;20036;-77
2021/11/05 09:13:56;;;;;;;24.88;18.83;;;;;;;;;;5045070;28;20116;-76
2021/11/05 09:16:22;;;;;;;24.90;19.80;;;;;;;;;;5053079;28;20118;-79
2021/11/05 09:18:48;;;;;;;20.23;17.05;;;;;;;;;;5047385;28;20106;-76
2021/11/05 09:21:15;;;;;;;20.38;14.95;;;;;;;;;;5049768;28;20036;-76
2021/11/05 09:23:41;;;;;;;14.55;11.02;;;;;;;;;;5063008;28;20028;-76
2021/11/05 09:26:09;;;;;;;13.02;10.05;;;;;;;;;;5054748;28;20096;-75
2021/11/05 09:28:37;;;;;;;12.82;9.50;;;;;;;;;;5060407;28;20154;-77
2021/11/05 09:31:03;;;;;;;13.52;10.80;;;;;;;;;;5071832;28;20052;-75
2021/11/05 09:33:30;;;;;;;9.35;8.32;;;;;;;;;;5067855;28;20077;-76
2021/11/05 09:35:58;;;;;;;8.70;7.07;;;;;;;;;;5051644;28;20779;-76
2021/11/05 09:38:24;;;;;;;15.80;12.38;;;;;;;;;;5050591;28;20041;-76
2021/11/05 09:40:51;;;;;;;8.30;6.25;;;;;;;;;;5069665;28;20025;-75
2021/11/05 09:43:18;;;;;;;16.77;10.68;;;;;;;;;;5053674;28;20092;-75
2021/11/05 09:45:44;;;;;;;10.30;7.15;;;;;;;;;;5056747;28;20031;-75
2021/11/05 09:48:14;;;;;;;9.40;6.60;;;;;;;;;;5053083;28;20128;-75
2021/11/05 09:50:40;;;;;;;11.70;9.32;;;;;;;;;;5075672;28;20013;-75
2021/11/05 09:53:07;;;;;;;11.70;7.75;;;;;;;;;;5075535;28;20047;-75
2021/11/05 09:55:35;;;;;;;13.63;8.35;;;;;;;;;;5057807;28;20020;-75
2021/11/05 09:58:01;;;;;;;10.80;7.25;;;;;;;;;;5056569;28;20037;-76
2021/11/05 10:00:29;;;;;;;12.70;8.70;;;;;;;;;;5059901;28;20031;-75
2021/11/05 10:02:55;;;;;;;11.10;8.00;;;;;;;;;;5070896;28;20048;-75
2021/11/05 10:05:22;;;;;;;13.30;9.82;;;;;;;;;;5076211;28;20039;-75
2021/11/05 10:07:56;;;;;;;11.82;9.32;;;;;;;;;;5055299;28;20037;-76
2021/11/05 10:10:31;;;;;;;11.68;7.68;;;;;;;;;;5076451;28;20033;-78
2021/11/05 10:13:01;;;;;;;11.30;8.00;;;;;;;;;;5052448;28;20041;-79
2021/11/05 10:15:48;;;;;;;14.35;9.65;;;;;;;;;;5054373;28;20017;-73
2021/11/05 10:18:39;;;;;;;14.95;10.20;;;;;;;;;;5056263;28;20033;-73
2021/11/05 10:21:17;;;;;;;18.58;13.32;;;;;;;;;;5046683;28;20021;-74
2021/11/05 10:24:08;;;;;;;15.50;10.52;;;;;;;;;;5059894;28;20029;-73
2021/11/05 10:26:38;;;;;;;16.85;11.75;;;;;;;;;;5051121;28;20035;-73
2021/11/05 10:29:37;;;;;;;15.32;12.05;;;;;;;;;;5048432;28;20048;-76
2021/11/05 10:32:19;;;;;;;18.65;14.93;;;;;;;;;;5017739;28;20054;-74
2021/11/05 10:34:52;;;;;;;19.63;14.18;;;;;;;;;;5033903;28;20057;-74
2021/11/05 10:37:37;;;;;;;15.93;12.80;;;;;;;;;;5006039;28;20022;-76
2021/11/05 10:40:07;;;;;;;16.40;12.20;;;;;;;;;;5035404;28;20013;-76
2021/11/05 10:42:35;;;;;;;16.90;12.45;;;;;;;;;;5020098;28;20085;-76
2021/11/05 10:45:14;;;;;;;31.40;23.73;;;;;;;;;;5036479;28;20014;-78
2021/11/05 10:47:58;;;;;;;19.45;15.80;;;;;;;;;;5031383;28;20053;-78
2021/11/05 10:50:55;;;;;;;14.13;12.35;;;;;;;;;;5017383;28;20049;-78
2021/11/05 10:56:49;;;;;;;11.77;9.77;;;;;;;;;;4988633;28;20218;-77
2021/11/05 10:59:41;;;;;;;12.25;10.52;;;;;;;;;;4950860;29;20022;-77
2021/11/05 11:02:31;;;;;;;13.73;10.73;;;;;;;;;;4955862;29;20043;-78
2021/11/05 11:05:02;;;;;;;15.98;11.27;;;;;;;;;;4930793;29;20304;-79
2021/11/05 11:07:44;;;;;;;14.13;10.63;;;;;;;;;;4946665;29;20059;-77
2021/11/05 11:10:27;;;;;;;14.32;11.15;;;;;;;;;;4933531;29;20040;-77
2021/11/05 11:12:53;;;;;;;15.68;12.65;;;;;;;;;;4934061;29;20066;-76
2021/11/05 11:15:35;;;;;;;20.42;13.10;;;;;;;;;;4936382;29;20040;-78
2021/11/05 11:18:01;;;;;;;23.73;16.50;;;;;;;;;;4930786;29;20138;-78
2021/11/05 11:20:31;;;;;;;48.42;17.55;;;;;;;;;;4930066;29;20043;-78
2021/11/05 11:22:57;;;;;;;27.73;17.17;;;;;;;;;;4936350;29;20115;-76
2021/11/05 11:25:23;;;;;;;23.95;17.85;;;;;;;;;;4916792;29;20036;-75
2021/11/05 11:27:49;;;;;;;17.90;14.35;;;;;;;;;;4922330;29;20047;-75
2021/11/05 11:30:23;;;;;;;15.18;12.13;;;;;;;;;;4926105;28;20064;-75
2021/11/05 11:32:50;;;;;;;14.50;11.85;;;;;;;;;;4947908;29;20048;-76
2021/11/05 11:35:22;;;;;;;12.73;10.23;;;;;;;;;;4945022;29;20044;-77
2021/11/05 11:37:49;;;;;;;11.80;10.15;;;;;;;;;;4956000;29;20055;-76
2021/11/05 11:40:16;;;;;;;12.95;10.43;;;;;;;;;;4988715;28;20058;-77
2021/11/05 11:42:42;;;;;;;15.63;10.35;;;;;;;;;;5003884;28;20034;-75
2021/11/05 11:45:15;;;;;;;13.38;11.30;;;;;;;;;;5000649;28;20088;-76
2021/11/05 11:47:43;;;;;;;15.65;11.40;;;;;;;;;;5002273;28;20129;-77
2021/11/05 11:50:23;;;;;;;23.02;18.77;;;;;;;;;;4993586;28;20057;-76
2021/11/05 11:53:05;;;;;;;19.00;15.10;;;;;;;;;;5013330;28;20037;-77
2021/11/05 11:55:34;;;;;;;31.90;20.98;;;;;;;;;;5012253;28;20030;-76
2021/11/05 11:58:11;;;;;;;32.05;22.27;;;;;;;;;;4998040;28;20065;-78
2021/11/05 12:00:39;;;;;;;68.07;41.53;;;;;;;;;;5009722;28;20030;-78
2021/11/05 12:03:10;;;;;;;16.40;12.18;;;;;;;;;;5001617;28;20042;-78
2021/11/05 12:05:38;;;;;;;16.58;13.35;;;;;;;;;;5005024;28;20026;-79
2021/11/05 12:08:22;;;;;;;15.23;13.05;;;;;;;;;;5002920;28;20435;-78
2021/11/05 12:10:48;;;;;;;15.32;12.40;;;;;;;;;;4999800;28;20030;-78
2021/11/05 12:13:33;;;;;;;18.10;12.65;;;;;;;;;;4981833;28;20187;-78
2021/11/05 12:16:15;;;;;;;17.17;13.77;;;;;;;;;;5002620;28;20046;-78
2021/11/05 12:19:08;;;;;;;19.67;15.63;;;;;;;;;;5010202;28;20034;-78
2021/11/05 12:21:42;;;;;;;18.50;12.95;;;;;;;;;;5017865;28;20022;-77
2021/11/05 12:24:17;;;;;;;22.88;17.27;;;;;;;;;;5006519;28;20042;-78
2021/11/05 12:26:47;;;;;;;29.35;20.85;;;;;;;;;;5006046;28;20095;-77
2021/11/05 12:29:36;;;;;;;24.77;18.65;;;;;;;;;;5000814;28;20054;-77
2021/11/05 12:32:18;;;;;;;43.60;27.08;;;;;;;;;;5007783;28;20022;-75
2021/11/05 12:34:48;;;;;;;32.22;19.77;;;;;;;;;;5017365;28;20037;-75
2021/11/05 12:40:22;;;;;;;27.17;18.25;;;;;;;;;;5010911;23;20652;-75
2021/11/05 12:42:50;;;;;;;24.67;18.80;;;;;;;;;;4988521;28;20037;-76
2021/11/05 12:45:16;;;;;;;18.63;14.73;;;;;;;;;;4955358;28;20088;-77
2021/11/05 12:47:57;;;;;;;19.73;16.23;;;;;;;;;;4964279;28;20489;-78
2021/11/05 12:50:25;;;;;;;23.52;19.95;;;;;;;;;;4992809;28;20042;-74
2021/11/05 12:52:52;;;;;;;35.08;28.55;;;;;;;;;;4993627;28;20023;-77
2021/11/05 12:55:18;;;;;;;22.83;18.55;;;;;;;;;;4986337;28;20030;-76
2021/11/05 12:57:51;;;;;;;20.05;16.73;;;;;;;;;;4973150;28;20047;-78
2021/11/05 13:00:19;;;;;;;16.67;13.70;;;;;;;;;;4974235;28;20050;-75
2021/11/05 13:02:53;;;;;;;15.55;12.38;;;;;;;;;;4988581;28;20485;-77
2021/11/05 13:05:19;;;;;;;17.58;13.30;;;;;;;;;;4992303;28;20047;-77
2021/11/05 13:07:55;;;;;;;15.25;12.40;;;;;;;;;;4990710;28;20405;-77
2021/11/05 13:10:24;;;;;;;17.50;12.57;;;;;;;;;;5000656;28;20022;-76
2021/11/05 13:12:53;;;;;;;19.08;13.38;;;;;;;;;;5000485;28;20038;-75
2021/11/05 13:17:55;;;;;;;19.88;15.85;;;;;;;;;;5904450;23;20119;-74
2021/11/05 13:20:30;;;;;;;18.17;14.40;;;;;;;;;;4985102;28;20030;-79
2021/11/05 13:22:57;;;;;;;16.60;13.55;;;;;;;;;;4977024;28;20959;-74
2021/11/05 13:25:30;;;;;;;18.77;14.05;;;;;;;;;;4979925;28;20049;-74
2021/11/05 13:28:01;;;;;;;15.10;13.30;;;;;;;;;;5007340;28;20034;-81
2021/11/05 13:33:07;;;;;;;15.13;12.35;;;;;;;;;;5104583;23;20126;-75
2021/11/05 13:35:42;;;;;;;17.30;14.48;;;;;;;;;;4991432;28;20034;-74
2021/11/05 13:38:09;;;;;;;21.52;16.02;;;;;;;;;;5233681;23;20093;-77
2021/11/05 13:40:43;;;;;;;20.67;14.95;;;;;;;;;;4962659;28;20039;-79
2021/11/05 13:43:10;;;;;;;18.02;13.95;;;;;;;;;;4975521;28;20076;-78
2021/11/05 13:45:58;;;;;;;20.25;13.85;;;;;;;;;;4984698;28;20030;-77
2021/11/05 13:48:34;;;;;;;22.90;19.42;;;;;;;;;;4963465;28;20473;-75
2021/11/05 13:51:20;;;;;;;18.58;15.18;;;;;;;;;;4971748;28;20038;-79
2021/11/05 13:54:07;;;;;;;21.85;17.65;;;;;;;;;;4971892;29;20100;-77
2021/11/05 13:56:33;;;;;;;24.65;19.58;;;;;;;;;;4964271;28;20015;-77
2021/11/05 13:59:01;;;;;;;26.23;19.88;;;;;;;;;;4950126;28;20508;-76
2021/11/05 14:01:29;;;;;;;19.80;16.40;;;;;;;;;;4962213;28;20492;-76
2021/11/05 14:03:57;;;;;;;22.40;17.98;;;;;;;;;;4945303;28;20035;-77
2021/11/05 14:06:24;;;;;;;25.05;18.20;;;;;;;;;;4964093;28;20051;-73
2021/11/05 14:08:53;;;;;;;22.05;17.27;;;;;;;;;;4961281;28;20150;-75
2021/11/05 14:11:26;;;;;;;25.75;19.48;;;;;;;;;;4963385;28;20098;-75
2021/11/05 14:13:52;;;;;;;36.03;24.00;;;;;;;;;;4963138;28;20039;-76
2021/11/05 14:16:19;;;;;;;34.45;23.08;;;;;;;;;;4963747;28;20246;-75
2021/11/05 14:18:45;;;;;;;47.15;33.00;;;;;;;;;;4960237;28;20027;-75
2021/11/05 14:21:22;;;;;;;29.08;23.63;;;;;;;;;;4958069;28;20031;-75
2021/11/05 14:23:49;;;;;;;21.50;17.80;;;;;;;;;;4943960;29;20035;-75
2021/11/05 14:26:23;;;;;;;21.73;18.23;;;;;;;;;;4958046;28;20031;-75
2021/11/05 14:29:08;;;;;;;19.77;14.07;;;;;;;;;;4971140;28;20494;-75
2021/11/05 14:31:49;;;;;;;13.70;11.35;;;;;;;;;;4964893;28;20049;-75
2021/11/05 14:34:15;;;;;;;18.60;13.43;;;;;;;;;;4959020;28;20435;-75
2021/11/05 14:36:41;;;;;;;23.35;18.38;;;;;;;;;;4957134;28;20058;-76
2021/11/05 14:39:07;;;;;;;22.88;19.73;;;;;;;;;;4972373;28;20042;-75
2021/11/05 14:41:33;;;;;;;21.52;17.45;;;;;;;;;;4969035;28;20025;-75
2021/11/05 14:44:03;;;;;;;18.70;15.45;;;;;;;;;;4957801;28;20637;-76
2021/11/05 14:46:43;;;;;;;18.42;15.88;;;;;;;;;;4957039;28;20046;-75
2021/11/05 14:49:16;;;;;;;25.10;20.27;;;;;;;;;;4961460;28;20102;-75
2021/11/05 14:51:42;;;;;;;;;;;;;;;;;;4959715;28;20393;-76
2021/11/05 14:54:09;;;;;;;21.80;18.15;;;;;;;;;;4957896;28;19915;-75
2021/11/05 14:56:35;;;;;;;23.17;19.23;;;;;;;;;;4959605;28;20038;-76